Station History

Weather Underground - logo

Station Historical Data
Daily Summary for February 7, 2018 Units:  Metric    English   Both
« Previous Day
Next Day »
Daily Weekly Monthly Yearly Custom
  High: Low: Average:
Temperature: -17.8 °C 6.5 °C 14.7 °C
Dew Point: -17.8 °C 5.4 °C 8.6 °C
Humidity: Humidity % 30 % 71 %
Wind Speed: 0 km/h 0 km/h 0.8 km/h
Wind Gust: 0 km/h - -
Wind:- - West
Pressure: 0 hPa 1021.6 hPa -
Precipitation: 0 mm    
Historical Graphs
 
 
Tabular Data for February 7, 2018
Time Temperature Dew Point Pressure Wind Wind Speed Wind Gust Humidity Rainfall Rate (Hourly)
-17.8 °C -17.8 °C 0 hPa Calm     Humidity % 0 mm
00:02 10 °C 8.3 °C 1021.9 hPa Calm     89 % 0 mm
00:07 9.9 °C 8.2 °C 1021.9 hPa Calm     89 % 0 mm
00:12 9.8 °C 8.2 °C 1021.9 hPa Calm     90 % 0 mm
00:17 9.8 °C 8.3 °C 1021.9 hPa Calm     90 % 0 mm
00:22 9.7 °C 8.2 °C 1021.9 hPa Calm     90 % 0 mm
00:27 9.6 °C 7.8 °C 1022.2 hPa Calm     89 % 0 mm
00:32 9.3 °C 7.6 °C 1022.2 hPa Calm     89 % 0 mm
00:37 9.2 °C 7.4 °C 1022.2 hPa Calm     89 % 0 mm
00:42 9.2 °C 7.6 °C 1022.2 hPa Calm     90 % 0 mm
00:47 9.1 °C 7.6 °C 1022.2 hPa Calm     90 % 0 mm
00:52 9.1 °C 7.6 °C 1022.2 hPa Calm     90 % 0 mm
00:57 9.1 °C 7.5 °C 1022.2 hPa Calm     90 % 0 mm
01:02 9 °C 7.4 °C 1022.2 hPa Calm     90 % 0 mm
01:07 8.9 °C 7.6 °C 1022.2 hPa Calm     91 % 0 mm
01:12 8.9 °C 7.5 °C 1022.2 hPa Calm     91 % 0 mm
01:17 8.8 °C 7.4 °C 1022.2 hPa Calm     91 % 0 mm
01:22 8.8 °C 7.4 °C 1022.6 hPa Calm     91 % 0 mm
01:27 8.7 °C 7.3 °C 1022.2 hPa Calm     91 % 0 mm
01:32 8.7 °C 7.5 °C 1022.6 hPa Calm     92 % 0 mm
01:37 8.7 °C 7.4 °C 1022.6 hPa Calm     92 % 0 mm
01:42 8.8 °C 7.6 °C 1022.6 hPa Calm     92 % 0 mm
01:47 9.1 °C 8.1 °C 1022.2 hPa Calm     93 % 0 mm
01:52 9.3 °C 8.2 °C 1022.2 hPa Calm     93 % 0 mm
01:57 9.3 °C 8.1 °C 1022.2 hPa Calm     92 % 0 mm
02:02 9.1 °C 7.5 °C 1022.2 hPa Calm     90 % 0 mm
02:07 8.8 °C 7.2 °C 1022.6 hPa Calm     90 % 0 mm
02:12 8.7 °C 7.3 °C 1022.6 hPa Calm     91 % 0 mm
02:17 8.6 °C 7.2 °C 1022.6 hPa Calm     91 % 0 mm
02:22 8.6 °C 7.4 °C 1022.6 hPa Calm     92 % 0 mm
02:27 8.7 °C 7.4 °C 1022.6 hPa Calm     92 % 0 mm
02:32 8.7 °C 7.5 °C 1022.6 hPa Calm     92 % 0 mm
02:37 8.5 °C 7.1 °C 1022.6 hPa Calm     91 % 0 mm
02:42 8.3 °C 6.9 °C 1022.6 hPa Calm     91 % 0 mm
02:47 8.1 °C 6.7 °C 1022.6 hPa Calm     91 % 0 mm
02:52 8 °C 6.6 °C 1022.6 hPa Calm     91 % 0 mm
02:57 7.8 °C 6.4 °C 1022.6 hPa Calm     91 % 0 mm
03:02 7.7 °C 6.3 °C 1022.6 hPa Calm     91 % 0 mm
03:07 7.6 °C 6.2 °C 1022.6 hPa Calm     91 % 0 mm
03:12 7.5 °C 6.3 °C 1022.6 hPa Calm     92 % 0 mm
03:17 7.6 °C 6.3 °C 1022.6 hPa Calm     92 % 0 mm
03:22 7.6 °C 6.5 °C 1022.6 hPa Calm     93 % 0 mm
03:27 7.6 °C 6.3 °C 1022.6 hPa Calm     92 % 0 mm
03:32 7.4 °C 6.2 °C 1022.6 hPa Calm     92 % 0 mm
03:37 7.2 °C 6 °C 1022.6 hPa Calm     92 % 0 mm
03:42 7.1 °C 5.9 °C 1022.6 hPa Calm     92 % 0 mm
03:47 7.1 °C 6.1 °C 1022.6 hPa Calm     93 % 0 mm
03:53 7.2 °C 6.2 °C 1022.6 hPa Calm     93 % 0 mm
03:58 7.2 °C 6.2 °C 1022.6 hPa Calm     93 % 0 mm
04:03 7.2 °C 6.2 °C 1022.6 hPa Calm     93 % 0 mm
04:08 7.2 °C 6.2 °C 1022.6 hPa Calm     93 % 0 mm
04:13 7.2 °C 6.1 °C 1022.6 hPa Calm     93 % 0 mm
04:18 7.1 °C 6 °C 1022.6 hPa Calm     93 % 0 mm
04:23 7 °C 5.9 °C 1022.6 hPa Calm     93 % 0 mm
04:28 7 °C 5.9 °C 1022.6 hPa Calm     93 % 0 mm
04:33 7 °C 5.9 °C 1022.6 hPa Calm     93 % 0 mm
04:38 7 °C 5.9 °C 1022.9 hPa Calm     93 % 0 mm
04:43 7.1 °C 6.2 °C 1022.9 hPa Calm     94 % 0 mm
04:48 7 °C 5.9 °C 1022.9 hPa Calm     93 % 0 mm
04:53 7 °C 5.9 °C 1022.9 hPa Calm     93 % 0 mm
04:58 6.9 °C 5.9 °C 1022.9 hPa Calm     93 % 0 mm
05:03 6.9 °C 5.9 °C 1022.9 hPa Calm     93 % 0 mm
05:08 6.9 °C 5.9 °C 1022.9 hPa Calm     93 % 0 mm
05:13 6.8 °C 5.8 °C 1022.9 hPa Calm     93 % 0 mm
05:18 6.7 °C 5.7 °C 1023.2 hPa Calm     93 % 0 mm
05:23 6.7 °C 5.7 °C 1023.2 hPa Calm     93 % 0 mm
05:28 6.7 °C 5.6 °C 1023.2 hPa Calm     93 % 0 mm
05:33 6.6 °C 5.5 °C 1023.2 hPa Calm     93 % 0 mm
05:38 6.5 °C 5.4 °C 1023.6 hPa Calm     93 % 0 mm
05:43 6.6 °C 5.7 °C 1023.6 hPa Calm     94 % 0 mm
05:48 6.9 °C 6 °C 1023.6 hPa NNE 1.9 km/h   94 % 0 mm
05:53 7.1 °C 6.2 °C 1023.6 hPa Calm     94 % 0 mm
05:58 7.1 °C 6.2 °C 1023.6 hPa Calm     94 % 0 mm
06:03 7.2 °C 6.3 °C 1023.6 hPa Calm     94 % 0 mm
06:08 7.1 °C 6.2 °C 1023.6 hPa Calm     94 % 0 mm
06:13 7.2 °C 6.5 °C 1023.6 hPa Calm     95 % 0 mm
06:18 7.2 °C 6.3 °C 1023.6 hPa Calm     94 % 0 mm
06:23 7.3 °C 6.6 °C 1023.9 hPa Calm     95 % 0 mm
06:28 7.4 °C 6.7 °C 1023.9 hPa Calm     95 % 0 mm
06:33 7.6 °C 6.8 °C 1023.9 hPa Calm     95 % 0 mm
06:38 7.6 °C 6.9 °C 1023.9 hPa Calm     95 % 0 mm
06:43 7.7 °C 6.9 °C 1023.9 hPa Calm     95 % 0 mm
06:48 7.6 °C 6.7 °C 1023.9 hPa Calm     94 % 0 mm
06:53 7.5 °C 6.6 °C 1023.9 hPa Calm     94 % 0 mm
06:58 7.4 °C 6.6 °C 1024.3 hPa Calm     94 % 0 mm
07:03 7.4 °C 6.5 °C 1024.3 hPa Calm     94 % 0 mm
07:08 7.4 °C 6.7 °C 1023.9 hPa Calm     95 % 0 mm
07:13 7.4 °C 6.7 °C 1024.3 hPa Calm     95 % 0 mm
07:18 7.4 °C 6.7 °C 1023.9 hPa Calm     95 % 0 mm
07:23 7.4 °C 6.7 °C 1023.9 hPa Calm     95 % 0 mm
07:28 7.5 °C 6.8 °C 1024.3 hPa Calm     95 % 0 mm
07:33 7.5 °C 6.8 °C 1024.3 hPa Calm     95 % 0 mm
07:38 7.4 °C 6.7 °C 1024.3 hPa Calm     95 % 0 mm
07:43 7.5 °C 6.8 °C 1024.3 hPa Calm     95 % 0 mm
07:48 7.7 °C 6.9 °C 1024.3 hPa Calm     95 % 0 mm
07:53 8.2 °C 7.4 °C 1024.3 hPa Calm     95 % 0 mm
07:58 8.5 °C 7.7 °C 1024.3 hPa Calm     95 % 0 mm
08:03 8.7 °C 7.9 °C 1024.3 hPa Calm     95 % 0 mm
08:08 9.2 °C 8.3 °C 1024.3 hPa Calm     94 % 0 mm
08:13 9.8 °C 8.8 °C 1024.3 hPa Calm     94 % 0 mm
08:18 10.8 °C 9.7 °C 1024.3 hPa Calm     93 % 0 mm
08:23 11.7 °C 10.1 °C 1024.3 hPa Calm     90 % 0 mm
08:28 12.4 °C 10.3 °C 1024.6 hPa Calm     87 % 0 mm
08:33 12.9 °C 10.5 °C 1024.6 hPa Calm     85 % 0 mm
08:38 13.3 °C 10.9 °C 1024.6 hPa Calm     85 % 0 mm
08:43 13.9 °C 10.9 °C 1024.6 hPa Calm     82 % 0 mm
08:48 14.2 °C 10.9 °C 1024.6 hPa Calm     81 % 0 mm
08:53 14.6 °C 11.2 °C 1024.6 hPa Calm     80 % 0 mm
08:58 14.8 °C 11.1 °C 1024.6 hPa Calm     78 % 0 mm
09:03 15.4 °C 11.2 °C 1024.6 hPa Calm     76 % 0 mm
09:08 16.1 °C 11.4 °C 1024.9 hPa SE 1.9 km/h   74 % 0 mm
09:13 16.3 °C 11.5 °C 1024.6 hPa Calm     73 % 0 mm
09:18 16.4 °C 11.6 °C 1024.9 hPa Calm     73 % 0 mm
09:23 16.9 °C 11.8 °C 1024.9 hPa ESE 1.9 km/h   72 % 0 mm
09:28 17.1 °C 11.3 °C 1024.6 hPa Calm     69 % 0 mm
09:33 17.2 °C 11.7 °C 1024.6 hPa SE 1.9 km/h   70 % 0 mm
09:38 17.4 °C 11.5 °C 1024.6 hPa ESE 1.9 km/h   68 % 0 mm
09:43 17.8 °C 11.8 °C 1024.6 hPa Calm     68 % 0 mm
09:48 18.1 °C 11.6 °C 1024.6 hPa Calm     66 % 0 mm
09:53 18.2 °C 11.6 °C 1024.6 hPa Calm     65 % 0 mm
09:58 18.3 °C 11.9 °C 1024.6 hPa Calm     66 % 0 mm
09:59 18.4 °C 11.9 °C 1024.6 hPa Calm     66 % 0 mm
10:04 18.7 °C 12 °C 1024.6 hPa Calm     65 % 0 mm
10:09 18.9 °C 11.7 °C 1024.6 hPa Calm     63 % 0 mm
10:14 18.9 °C 11.9 °C 1024.6 hPa Calm     64 % 0 mm
10:19 19.1 °C 11.8 °C 1024.6 hPa Calm     63 % 0 mm
10:24 19.4 °C 11.9 °C 1024.6 hPa Calm     62 % 0 mm
10:29 19.4 °C 11.7 °C 1024.6 hPa Calm     61 % 0 mm
10:34 19.6 °C 12.1 °C 1024.6 hPa Calm     62 % 0 mm
10:39 19.9 °C 12.2 °C 1024.6 hPa NW 1.6 km/h   61 % 0 mm
10:44 19.8 °C 11.8 °C 1024.6 hPa Calm     60 % 0 mm
10:49 19.9 °C 12.2 °C 1024.6 hPa East 1.9 km/h 1.9 km/h 61 % 0 mm
10:54 19.9 °C 11.7 °C 1024.6 hPa WNW 1.9 km/h 1.9 km/h 59 % 0 mm
10:59 20.1 °C 11.6 °C 1024.6 hPa ENE 1.9 km/h   58 % 0 mm
11:04 20.4 °C 12.1 °C 1024.6 hPa Calm     59 % 0 mm
11:09 20.7 °C 11.9 °C 1024.6 hPa Calm     57 % 0 mm
11:14 20.8 °C 11.4 °C 1024.3 hPa NW 1.9 km/h 1.9 km/h 55 % 0 mm
11:19 21.1 °C 11.4 °C 1024.3 hPa East 1.9 km/h 1.9 km/h 54 % 0 mm
11:24 21.3 °C 11.9 °C 1024.3 hPa Calm     55 % 0 mm
11:29 21.4 °C 10.8 °C 1024.3 hPa NW 1.9 km/h   51 % 0 mm
11:34 21.3 °C 11.3 °C 1024.3 hPa Calm     53 % 0 mm
11:39 21.6 °C 12.1 °C 1024.3 hPa Calm     55 % 0 mm
11:44 21.8 °C 12.3 °C 1024.3 hPa SE 1.9 km/h   55 % 0 mm
11:49 22 °C 11.7 °C 1024.3 hPa NW 1.9 km/h 1.9 km/h 52 % 0 mm
11:54 21.9 °C 11.9 °C 1023.9 hPa Calm     53 % 0 mm
11:59 22.2 °C 11.3 °C 1023.9 hPa NNW 1.9 km/h 1.9 km/h 50 % 0 mm
12:04 22.3 °C 11.3 °C 1023.9 hPa NW 1.9 km/h 1.9 km/h 50 % 0 mm
12:09 22.2 °C 11.6 °C 1023.9 hPa WNW 3.7 km/h 3.7 km/h 51 % 0 mm
12:14 22.2 °C 11.6 °C 1023.6 hPa WNW 3.2 km/h 3.2 km/h 51 % 0 mm
12:19 22.3 °C 11.7 °C 1023.6 hPa WNW 1.9 km/h 1.9 km/h 51 % 0 mm
12:24 22.3 °C 11.4 °C 1023.6 hPa NNW 1.9 km/h 1.9 km/h 50 % 0 mm
12:29 22.7 °C 11.4 °C 1023.6 hPa Calm     49 % 0 mm
12:34 22.9 °C 11.3 °C 1023.2 hPa NNE 3.7 km/h 3.7 km/h 48 % 0 mm
12:39 22.9 °C 11.3 °C 1023.2 hPa NW 3.7 km/h 3.7 km/h 48 % 0 mm
12:45 22.8 °C 11.5 °C 1023.2 hPa Calm     49 % 0 mm
12:50 22.9 °C 11 °C 1023.2 hPa Calm     47 % 0 mm
12:55 23.2 °C 11.3 °C 1022.9 hPa North 5.6 km/h 5.6 km/h 47 % 0 mm
13:00 23.3 °C 11.7 °C 1022.9 hPa WNW 1.9 km/h 1.9 km/h 48 % 0 mm
13:05 23.4 °C 11.5 °C 1022.9 hPa NW 1.9 km/h 1.9 km/h 47 % 0 mm
13:10 23.7 °C 11.3 °C 1022.9 hPa NW 1.9 km/h   46 % 0 mm
13:15 23.8 °C 10.8 °C 1022.6 hPa NW 5.6 km/h 5.6 km/h 44 % 0 mm
13:20 23.7 °C 11.1 °C 1022.6 hPa NW 1.9 km/h 1.9 km/h 45 % 0 mm
13:25 23.8 °C 10.4 °C 1022.6 hPa NW 1.9 km/h   43 % 0 mm
13:30 23.7 °C 10.7 °C 1022.6 hPa Calm     44 % 0 mm
13:35 24.1 °C 11.4 °C 1022.6 hPa Calm     45 % 0 mm
13:40 24.2 °C 10.8 °C 1022.6 hPa NNW 1.9 km/h 1.9 km/h 43 % 0 mm
13:45 24.4 °C 11 °C 1022.2 hPa NW 4.8 km/h 4.8 km/h 43 % 0 mm
13:50 24.4 °C 10.7 °C 1022.2 hPa WSW 5.6 km/h 5.6 km/h 42 % 0 mm
13:55 24.3 °C 10.9 °C 1022.2 hPa WNW 3.7 km/h 3.7 km/h 43 % 0 mm
14:00 24.2 °C 10.5 °C 1022.2 hPa Calm     42 % 0 mm
14:05 24.3 °C 10.6 °C 1022.2 hPa WNW 5.6 km/h 5.6 km/h 42 % 0 mm
14:10 24.4 °C 10.7 °C 1022.2 hPa Calm     42 % 0 mm
14:15 24.6 °C 11.2 °C 1022.2 hPa NW 1.9 km/h 1.9 km/h 43 % 0 mm
14:20 24.6 °C 10.5 °C 1021.9 hPa NW 3.7 km/h 3.7 km/h 41 % 0 mm
14:25 24.7 °C 10.6 °C 1021.9 hPa NW 3.7 km/h 3.7 km/h 41 % 0 mm
14:30 24.7 °C 11.2 °C 1021.9 hPa NNW 3.7 km/h 3.7 km/h 43 % 0 mm
14:35 24.6 °C 10.4 °C 1021.9 hPa NNE 3.2 km/h 3.2 km/h 41 % 0 mm
14:40 24.6 °C 10.4 °C 1021.9 hPa Calm     41 % 0 mm
14:45 24.6 °C 8.9 °C 1021.9 hPa WNW 3.7 km/h 3.7 km/h 37 % 0 mm
14:50 24.6 °C 8.9 °C 1021.6 hPa NW 5.6 km/h 5.6 km/h 37 % 0 mm
14:55 24.7 °C 9.1 °C 1021.9 hPa NW 6.4 km/h 6.4 km/h 37 % 0 mm
15:00 24.7 °C 8.6 °C 1021.6 hPa NW 5.6 km/h 5.6 km/h 36 % 0 mm
15:05 24.6 °C 8.6 °C 1021.6 hPa NNW 5.6 km/h 5.6 km/h 36 % 0 mm
15:10 24.6 °C 7.7 °C 1021.6 hPa NW 6.4 km/h 6.4 km/h 34 % 0 mm
15:15 24.6 °C 7.3 °C 1021.6 hPa WNW 7.4 km/h 7.4 km/h 33 % 0 mm
15:20 24.6 °C 7.7 °C 1021.6 hPa NW 5.6 km/h 5.6 km/h 34 % 0 mm
15:25 24.6 °C 6.8 °C 1021.9 hPa NW 5.6 km/h 5.6 km/h 32 % 0 mm
15:30 24.6 °C 7.7 °C 1021.9 hPa WNW 5.6 km/h 5.6 km/h 34 % 0 mm
15:35 24.5 °C 7.2 °C 1021.9 hPa NW 5.6 km/h 5.6 km/h 33 % 0 mm
15:40 24.5 °C 7.2 °C 1021.9 hPa NW 5.6 km/h 5.6 km/h 33 % 0 mm
15:45 24.6 °C 6.8 °C 1021.9 hPa NW 7.4 km/h 7.4 km/h 32 % 0 mm
15:50 24.5 °C 6.7 °C 1021.9 hPa NW 3.7 km/h 3.7 km/h 32 % 0 mm
15:55 24.4 °C 6.2 °C 1021.9 hPa North 5.6 km/h 5.6 km/h 31 % 0 mm
16:00 24.4 °C 5.7 °C 1021.9 hPa NW 1.9 km/h 1.9 km/h 30 % 0 mm
16:05 24.3 °C 6.6 °C 1021.9 hPa NNW 3.2 km/h 3.2 km/h 32 % 0 mm
16:10 24.2 °C 6.5 °C 1021.9 hPa NW 4.8 km/h 4.8 km/h 32 % 0 mm
16:15 24.1 °C 6.8 °C 1021.9 hPa WNW 5.6 km/h 5.6 km/h 33 % 0 mm
16:20 24.1 °C 6.8 °C 1021.9 hPa NW 3.7 km/h 3.9 km/h 33 % 0 mm
16:25 24.1 °C 7.2 °C 1021.9 hPa NW 7.4 km/h 7.4 km/h 34 % 0 mm
16:30 23.9 °C 7.5 °C 1021.9 hPa North 3.7 km/h 3.7 km/h 35 % 0 mm
16:35 23.8 °C 8.3 °C 1021.9 hPa NW 1.9 km/h 1.9 km/h 37 % 0 mm
16:40 23.7 °C 8.5 °C 1021.9 hPa NW 1.9 km/h 1.9 km/h 38 % 0 mm
16:45 23.6 °C 8.8 °C 1021.9 hPa WNW 3.7 km/h 3.7 km/h 39 % 0 mm
16:50 23.4 °C 9 °C 1021.9 hPa WNW 3.7 km/h 3.7 km/h 40 % 0 mm
16:55 23.2 °C 9.2 °C 1021.9 hPa Calm     41 % 0 mm
17:00 23.1 °C 9.1 °C 1021.9 hPa Calm     41 % 0 mm
17:05 22.9 °C 9 °C 1021.9 hPa Calm     41 % 0 mm
17:10 22.8 °C 8.8 °C 1021.9 hPa Calm     41 % 0 mm
17:15 22.5 °C 9.3 °C 1021.9 hPa Calm     43 % 0 mm
17:20 22.1 °C 9.3 °C 1021.9 hPa Calm     44 % 0 mm
17:25 21.7 °C 9.6 °C 1021.9 hPa Calm     46 % 0 mm
17:30 21.2 °C 9.4 °C 1021.9 hPa Calm     47 % 0 mm
17:35 20.7 °C 9.6 °C 1021.9 hPa Calm     49 % 0 mm
17:40 20.3 °C 9.8 °C 1021.9 hPa Calm     51 % 0 mm
17:45 19.8 °C 9.7 °C 1021.9 hPa Calm     52 % 0 mm
17:50 19.4 °C 9.6 °C 1021.9 hPa Calm     53 % 0 mm
17:55 18.9 °C 10.2 °C 1022.2 hPa Calm     57 % 0 mm
18:00 18.4 °C 9.8 °C 1022.2 hPa Calm     57 % 0 mm
18:05 18.3 °C 9.6 °C 1022.2 hPa Calm     57 % 0 mm
18:10 18.2 °C 9.6 °C 1022.2 hPa Calm     57 % 0 mm
18:15 18.1 °C 9.7 °C 1022.2 hPa Calm     58 % 0 mm
18:20 17.8 °C 9.4 °C 1022.2 hPa Calm     58 % 0 mm
18:26 17.5 °C 9.4 °C 1022.2 hPa Calm     59 % 0 mm
18:31 17.2 °C 9.4 °C 1022.2 hPa Calm     60 % 0 mm
18:36 16.9 °C 9.6 °C 1022.6 hPa Calm     62 % 0 mm
18:41 16.8 °C 9.5 °C 1022.6 hPa Calm     62 % 0 mm
18:46 16.7 °C 9.4 °C 1022.6 hPa Calm     62 % 0 mm
18:51 16.7 °C 9.6 °C 1022.2 hPa Calm     63 % 0 mm
18:56 16.7 °C 9.6 °C 1022.6 hPa Calm     63 % 0 mm
19:01 16.5 °C 9.4 °C 1022.6 hPa Calm     63 % 0 mm
19:06 16.3 °C 9.5 °C 1022.6 hPa Calm     64 % 0 mm
19:11 16.3 °C 9.4 °C 1022.6 hPa Calm     64 % 0 mm
19:16 16.2 °C 9.6 °C 1022.6 hPa Calm     65 % 0 mm
19:21 16.1 °C 9.5 °C 1022.6 hPa Calm     65 % 0 mm
19:26 15.8 °C 9.4 °C 1022.6 hPa Calm     66 % 0 mm
19:31 15.5 °C 9.6 °C 1022.6 hPa Calm     68 % 0 mm
19:36 15.2 °C 9.6 °C 1022.6 hPa Calm     69 % 0 mm
19:41 14.9 °C 9.5 °C 1022.6 hPa Calm     70 % 0 mm
19:46 14.8 °C 9.6 °C 1022.9 hPa Calm     71 % 0 mm
19:51 14.6 °C 9.6 °C 1022.9 hPa Calm     72 % 0 mm
19:56 14.7 °C 9.4 °C 1022.9 hPa Calm     71 % 0 mm
20:01 14.7 °C 9.5 °C 1022.9 hPa Calm     71 % 0 mm
20:04 14.6 °C 9.4 °C 1022.9 hPa Calm     71 % 0 mm
20:09 14.3 °C 9.3 °C 1022.9 hPa Calm     72 % 0 mm
20:15 13.9 °C 9.1 °C 1022.9 hPa Calm     73 % 0 mm
20:19 13.7 °C 9.1 °C 1022.9 hPa Calm     74 % 0 mm
20:25 13.6 °C 9.2 °C 1023.2 hPa Calm     75 % 0 mm
20:30 13.4 °C 9.1 °C 1023.2 hPa Calm     75 % 0 mm
20:35 13.6 °C 9.3 °C 1023.2 hPa Calm     75 % 0 mm
20:40 14 °C 9.2 °C 1023.2 hPa Calm     73 % 0 mm
20:45 14.2 °C 9.2 °C 1023.2 hPa Calm     72 % 0 mm
20:50 14.6 °C 9.3 °C 1023.2 hPa Calm     71 % 0 mm
20:55 14.9 °C 9.2 °C 1023.2 hPa Calm     69 % 0 mm
21:00 15 °C 9.1 °C 1023.2 hPa Calm     68 % 0 mm
21:05 15.1 °C 9.2 °C 1023.2 hPa Calm     68 % 0 mm
21:10 14.9 °C 9.1 °C 1023.2 hPa Calm     68 % 0 mm
21:15 14.6 °C 8.9 °C 1023.2 hPa Calm     69 % 0 mm
21:20 14.1 °C 8.9 °C 1023.2 hPa West 1.9 km/h   71 % 0 mm
21:25 13.7 °C 8.7 °C 1023.2 hPa Calm     72 % 0 mm
21:30 13.2 °C 8.7 °C 1023.2 hPa Calm     74 % 0 mm
21:35 12.7 °C 8.6 °C 1023.2 hPa Calm     76 % 0 mm
21:40 12.1 °C 8.4 °C 1023.2 hPa Calm     78 % 0 mm
21:45 11.8 °C 8.3 °C 1023.2 hPa Calm     79 % 0 mm
21:50 11.4 °C 8.1 °C 1023.6 hPa Calm     80 % 0 mm
21:55 11.2 °C 8 °C 1023.6 hPa Calm     81 % 0 mm
22:00 11 °C 8.2 °C 1023.6 hPa Calm     83 % 0 mm
22:05 10.9 °C 8.2 °C 1023.6 hPa Calm     83 % 0 mm
22:10 10.9 °C 8.1 °C 1023.6 hPa Calm     83 % 0 mm
22:15 10.8 °C 8.2 °C 1023.6 hPa Calm     84 % 0 mm
22:20 10.7 °C 8.1 °C 1023.6 hPa Calm     84 % 0 mm
22:25 10.6 °C 7.9 °C 1023.6 hPa SE 1.9 km/h 1.9 km/h 84 % 0 mm
22:30 10.4 °C 8 °C 1023.6 hPa Calm     85 % 0 mm
22:35 10.2 °C 7.8 °C 1023.6 hPa Calm     85 % 0 mm
22:40 10.2 °C 8 °C 1023.6 hPa Calm     86 % 0 mm
22:45 10.2 °C 7.9 °C 1023.6 hPa Calm     86 % 0 mm
22:50 10.2 °C 7.9 °C 1023.6 hPa Calm     86 % 0 mm
22:55 10.2 °C 8 °C 1023.6 hPa Calm     86 % 0 mm
23:00 10.4 °C 8.2 °C 1023.6 hPa Calm     86 % 0 mm
23:05 10.6 °C 8.3 °C 1023.6 hPa Calm     86 % 0 mm
23:10 10.7 °C 8.3 °C 1023.6 hPa Calm     85 % 0 mm
23:15 10.8 °C 8.2 °C 1023.6 hPa Calm     84 % 0 mm
23:20 10.8 °C 8.2 °C 1023.6 hPa Calm     84 % 0 mm
23:25 10.7 °C 8.1 °C 1023.6 hPa Calm     84 % 0 mm
23:30 10.8 °C 8.2 °C 1023.6 hPa Calm     84 % 0 mm
23:35 10.8 °C 7.9 °C 1023.6 hPa Calm     82 % 0 mm
23:40 10.6 °C 7.6 °C 1023.6 hPa Calm     82 % 0 mm
23:45 10.4 °C 7.7 °C 1023.6 hPa Calm     83 % 0 mm
23:50 10.4 °C 7.7 °C 1023.6 hPa Calm     83 % 0 mm
23:55 10.4 °C 7.8 °C 1023.6 hPa Calm     84 % 0 mm
Park Place, Exeter, Tulare County, California, USA
Compliments of Weather Underground - 2.75 mb